createdAt,value
2019-02-26T00:01:32.145Z,19.77
2019-02-26T00:04:00.436Z,20.93
2019-02-26T00:06:30.218Z,23.18
2019-02-26T00:09:00.834Z,22.53
2019-02-26T00:11:30.774Z,20.33
2019-02-26T00:13:58.978Z,19.02
2019-02-26T00:16:27.725Z,21.30
2019-02-26T00:18:58.089Z,25.45
2019-02-26T00:21:26.433Z,20.72
2019-02-26T00:23:56.073Z,21.05
2019-02-26T00:26:24.366Z,19.95
2019-02-26T00:28:53.003Z,17.82
2019-02-26T00:31:22.233Z,23.50
2019-02-26T00:33:51.338Z,21.65
2019-02-26T00:36:19.613Z,26.75
2019-02-26T00:38:47.945Z,21.00
2019-02-26T00:41:16.242Z,21.70
2019-02-26T00:43:44.905Z,19.80
2019-02-26T00:46:13.493Z,24.02
2019-02-26T00:48:43.148Z,27.20
2019-02-26T00:51:11.487Z,22.60
2019-02-26T00:53:39.791Z,22.27
2019-02-26T00:56:10.315Z,25.08
2019-02-26T00:58:39.203Z,26.77
2019-02-26T01:01:12.214Z,27.02
2019-02-26T01:03:40.679Z,24.60
2019-02-26T01:06:08.542Z,23.80
2019-02-26T01:08:37.931Z,28.95
2019-02-26T01:11:08.318Z,27.77
2019-02-26T01:13:36.865Z,23.40
2019-02-26T01:16:05.520Z,25.70
2019-02-26T01:18:33.811Z,22.75
2019-02-26T01:21:04.260Z,29.55
2019-02-26T01:23:32.477Z,22.67
2019-02-26T01:26:00.759Z,20.05
2019-02-26T01:28:29.243Z,24.92
2019-02-26T01:30:58.420Z,25.75
2019-02-26T01:33:29.745Z,25.32
2019-02-26T01:36:00.105Z,21.50
2019-02-26T01:38:28.187Z,21.93
2019-02-26T01:40:56.486Z,21.00
2019-02-26T01:43:24.803Z,18.45
2019-02-26T01:45:55.247Z,19.80
2019-02-26T01:48:23.125Z,21.02
2019-02-26T01:50:52.138Z,22.05
2019-02-26T01:53:23.611Z,19.15
2019-02-26T01:55:52.259Z,23.25
2019-02-26T01:58:20.559Z,20.50
2019-02-26T02:00:48.838Z,20.52
2019-02-26T02:03:18.632Z,19.55
2019-02-26T02:05:48.023Z,20.50
2019-02-26T02:08:20.252Z,20.05
2019-02-26T02:10:49.612Z,21.60
2019-02-26T02:13:18.366Z,19.57
2019-02-26T02:15:46.967Z,19.35
2019-02-26T02:18:15.269Z,20.07
2019-02-26T02:20:43.569Z,27.05
2019-02-26T02:23:11.842Z,22.27
2019-02-26T02:25:40.884Z,23.07
2019-02-26T02:28:10.319Z,22.58
2019-02-26T02:30:39.145Z,20.52
2019-02-26T02:33:07.470Z,22.20
2019-02-26T02:35:35.788Z,25.75
2019-02-26T02:38:04.950Z,22.30
2019-02-26T02:40:33.306Z,22.80
2019-02-26T02:43:04.385Z,22.25
2019-02-26T02:45:31.957Z,22.62
2019-02-26T02:48:00.736Z,22.25
2019-02-26T02:50:30.273Z,23.30
2019-02-26T02:52:59.621Z,20.17
2019-02-26T02:55:28.625Z,23.18
2019-02-26T02:57:59.944Z,23.57
2019-02-26T03:00:28.795Z,22.25
2019-02-26T03:02:58.328Z,23.95
2019-02-26T03:05:26.730Z,23.60
2019-02-26T03:07:56.385Z,22.27
2019-02-26T03:10:28.449Z,23.87
2019-02-26T03:12:57.809Z,23.12
2019-02-26T03:15:27.355Z,21.02
2019-02-26T03:17:55.006Z,20.97
2019-02-26T03:20:24.714Z,20.40
2019-02-26T03:22:53.376Z,22.82
2019-02-26T03:25:24.360Z,22.20
2019-02-26T03:27:51.959Z,21.17
2019-02-26T03:30:32.100Z,22.82
2019-02-26T03:32:58.510Z,21.55
2019-02-26T03:35:23.298Z,20.40
2019-02-26T03:37:54.789Z,23.18
2019-02-26T03:40:24.134Z,21.85
2019-02-26T03:42:52.274Z,19.90
2019-02-26T03:45:24.137Z,18.95
2019-02-26T03:47:50.581Z,20.88
2019-02-26T03:50:18.880Z,19.55
2019-02-26T03:52:47.239Z,21.48
2019-02-26T03:55:18.910Z,22.70
2019-02-26T03:57:47.307Z,20.92
2019-02-26T04:00:19.533Z,21.77
2019-02-26T04:02:50.519Z,19.62
2019-02-26T04:05:17.265Z,22.70
2019-02-26T04:07:45.551Z,21.40
2019-02-26T04:10:14.101Z,19.60
2019-02-26T04:12:45.039Z,25.72
2019-02-26T04:15:14.933Z,21.42
2019-02-26T04:17:43.226Z,21.65
2019-02-26T04:20:13.263Z,21.23
2019-02-26T04:22:43.044Z,22.75
2019-02-26T04:25:22.239Z,22.90
2019-02-26T04:28:11.091Z,22.50
2019-02-26T04:30:50.282Z,25.20
2019-02-26T04:33:59.556Z,25.25
2019-02-26T04:36:42.014Z,22.27
2019-02-26T04:39:34.876Z,22.42
2019-02-26T04:42:25.386Z,21.82
2019-02-26T04:45:09.192Z,20.10
2019-02-26T04:47:55.463Z,21.93
2019-02-26T04:50:28.367Z,21.60
2019-02-26T04:52:55.396Z,23.17
2019-02-26T04:55:23.076Z,22.07
2019-02-26T04:57:54.017Z,25.97
2019-02-26T05:00:23.696Z,24.67
2019-02-26T05:02:52.478Z,27.27
2019-02-26T05:05:22.471Z,24.82
2019-02-26T05:07:50.841Z,23.70
2019-02-26T05:10:20.478Z,24.70
2019-02-26T05:12:49.220Z,26.43
2019-02-26T05:15:20.295Z,25.72
2019-02-26T05:17:47.558Z,28.77
2019-02-26T05:20:18.726Z,23.90
2019-02-26T05:22:45.877Z,30.75
2019-02-26T05:25:16.990Z,27.52
2019-02-26T05:27:46.207Z,25.50
2019-02-26T05:30:17.258Z,26.70
2019-02-26T05:32:44.371Z,23.25
2019-02-26T05:35:14.435Z,23.90
2019-02-26T05:37:42.716Z,26.25
2019-02-26T05:40:14.961Z,24.02
2019-02-26T05:42:41.062Z,26.23
2019-02-26T05:45:09.618Z,27.02
2019-02-26T05:47:38.047Z,23.05
2019-02-26T05:50:12.388Z,25.27
2019-02-26T05:52:38.327Z,25.12
2019-02-26T05:55:07.510Z,27.07
2019-02-26T05:57:36.105Z,30.48
2019-02-26T06:00:08.384Z,25.37
2019-02-26T06:02:39.501Z,27.17
2019-02-26T06:05:08.252Z,23.62
2019-02-26T06:07:38.815Z,30.17
2019-02-26T06:10:07.047Z,29.07
2019-02-26T06:12:36.267Z,28.10
2019-02-26T06:15:08.087Z,30.02
2019-02-26T06:17:40.642Z,23.60
2019-02-26T06:20:18.770Z,28.83
2019-02-26T06:22:47.069Z,26.73
2019-02-26T06:25:22.766Z,25.13
2019-02-26T06:27:45.429Z,25.40
2019-02-26T06:30:14.670Z,27.87
2019-02-26T06:32:44.668Z,26.42
2019-02-26T06:35:16.533Z,22.98
2019-02-26T06:37:45.296Z,24.90
2019-02-26T06:40:16.458Z,25.23
2019-02-26T06:42:44.767Z,22.90
2019-02-26T06:45:16.677Z,32.88
2019-02-26T06:47:45.759Z,24.35
2019-02-26T06:50:17.971Z,24.63
2019-02-26T06:52:47.338Z,25.20
2019-02-26T06:55:15.030Z,26.85
2019-02-26T06:57:46.394Z,25.95
2019-02-26T07:00:16.765Z,22.85
2019-02-26T07:02:46.363Z,29.95
2019-02-26T07:05:15.371Z,24.50
2019-02-26T07:07:43.690Z,22.67
2019-02-26T07:10:18.421Z,25.82
2019-02-26T07:12:45.539Z,24.00
2019-02-26T07:15:17.169Z,26.27
2019-02-26T07:17:46.289Z,23.70
2019-02-26T07:20:14.782Z,29.48
2019-02-26T07:22:44.050Z,26.23
2019-02-26T07:25:15.826Z,29.75
2019-02-26T07:27:43.171Z,22.62
2019-02-26T07:30:12.446Z,25.62
2019-02-26T07:32:43.008Z,27.55
2019-02-26T07:35:11.629Z,27.27
2019-02-26T07:37:41.178Z,31.15
2019-02-26T07:40:13.006Z,26.27
2019-02-26T07:42:41.440Z,26.70
2019-02-26T07:45:15.017Z,25.10
2019-02-26T07:47:42.045Z,26.85
2019-02-26T07:50:14.302Z,24.90
2019-02-26T07:52:41.630Z,23.32
2019-02-26T07:55:12.156Z,25.77
2019-02-26T07:57:43.019Z,24.30
2019-02-26T08:00:20.461Z,21.60
2019-02-26T08:02:51.433Z,26.35
2019-02-26T08:05:21.341Z,21.82
2019-02-26T08:07:51.982Z,22.60
2019-02-26T08:10:20.337Z,20.37
2019-02-26T08:12:49.017Z,23.47
2019-02-26T08:15:17.388Z,24.32
2019-02-26T08:17:50.108Z,22.00
2019-02-26T08:20:15.802Z,19.90
2019-02-26T08:22:44.112Z,20.40
2019-02-26T08:25:14.459Z,20.17
2019-02-26T08:27:42.868Z,17.90
2019-02-26T08:30:18.589Z,14.90
2019-02-26T08:32:48.212Z,15.95
2019-02-26T08:35:18.110Z,18.15
2019-02-26T08:37:46.202Z,17.37
2019-02-26T08:40:16.308Z,17.10
2019-02-26T08:42:44.598Z,23.20
2019-02-26T08:45:20.311Z,16.55
2019-02-26T08:47:48.108Z,18.80
2019-02-26T08:50:16.884Z,19.15
2019-02-26T08:52:49.406Z,21.02
2019-02-26T08:55:20.843Z,23.45
2019-02-26T08:57:46.262Z,20.62
2019-02-26T09:00:17.475Z,21.27
2019-02-26T09:02:48.495Z,18.32
2019-02-26T09:05:16.146Z,20.65
2019-02-26T09:07:45.605Z,17.00
2019-02-26T09:10:17.887Z,18.42
2019-02-26T09:12:48.581Z,18.10
2019-02-26T09:15:20.948Z,21.45
2019-02-26T09:17:49.250Z,19.90
2019-02-26T09:20:19.270Z,16.85
2019-02-26T09:22:50.270Z,15.05
2019-02-26T09:25:17.609Z,18.70
2019-02-26T09:27:45.898Z,15.63
2019-02-26T09:30:20.524Z,16.10
2019-02-26T09:32:48.853Z,18.07
2019-02-26T09:35:20.321Z,15.00
2019-02-26T09:37:50.604Z,19.23
2019-02-26T09:40:23.630Z,17.60
2019-02-26T09:42:54.364Z,16.55
2019-02-26T09:45:26.057Z,19.92
2019-02-26T09:47:55.639Z,15.20
2019-02-26T09:50:23.756Z,15.40
2019-02-26T09:52:53.461Z,17.07
2019-02-26T09:55:22.077Z,15.13
2019-02-26T09:57:50.399Z,21.33
2019-02-26T10:00:25.847Z,13.68
2019-02-26T10:02:52.992Z,16.85
2019-02-26T10:05:21.283Z,19.47
2019-02-26T10:07:52.338Z,14.70
2019-02-26T10:10:20.856Z,16.87
2019-02-26T10:12:51.157Z,16.52
2019-02-26T10:15:19.865Z,15.65
2019-02-26T10:17:48.154Z,15.80
2019-02-26T10:20:23.234Z,17.92
2019-02-26T10:22:53.156Z,16.55
2019-02-26T10:25:23.247Z,17.73
2019-02-26T10:27:51.599Z,17.83
2019-02-26T10:30:21.747Z,15.13
2019-02-26T10:32:50.049Z,15.07
2019-02-26T10:35:32.616Z,18.45
2019-02-26T10:37:57.148Z,16.70
2019-02-26T10:40:34.559Z,14.58
2019-02-26T10:42:56.603Z,13.25
2019-02-26T10:45:36.088Z,17.77
2019-02-26T10:48:01.777Z,13.43
2019-02-26T10:50:31.918Z,14.98
2019-02-26T10:53:07.124Z,15.30
2019-02-26T10:55:38.239Z,13.10
2019-02-26T10:58:04.786Z,13.18
2019-02-26T11:00:34.638Z,15.30
2019-02-26T11:03:01.286Z,13.80
2019-02-26T11:05:29.639Z,16.33
2019-02-26T11:08:01.395Z,15.38
2019-02-26T11:10:28.403Z,16.20
2019-02-26T11:12:59.624Z,16.32
2019-02-26T11:15:30.161Z,18.73
2019-02-26T11:17:57.119Z,18.30
2019-02-26T11:20:27.686Z,18.98
2019-02-26T11:22:55.474Z,22.00
2019-02-26T11:25:24.896Z,20.43
2019-02-26T11:27:53.830Z,24.40
2019-02-26T11:30:27.225Z,20.40
2019-02-26T11:32:58.668Z,19.77
2019-02-26T11:35:27.121Z,21.52
2019-02-26T11:37:55.455Z,21.85
2019-02-26T11:40:27.649Z,22.00
2019-02-26T11:42:55.452Z,24.87
2019-02-26T11:45:24.389Z,21.75
2019-02-26T11:47:55.169Z,21.73
2019-02-26T11:50:28.005Z,21.80
2019-02-26T11:52:55.222Z,20.15
2019-02-26T11:55:26.196Z,20.30
2019-02-26T11:57:53.829Z,21.05
2019-02-26T12:00:44.805Z,19.27
2019-02-26T12:03:13.403Z,19.90
2019-02-26T12:05:41.941Z,19.95
2019-02-26T12:08:11.622Z,17.80
2019-02-26T12:10:40.585Z,19.80
2019-02-26T12:13:09.212Z,17.82
2019-02-26T12:15:39.901Z,15.58
2019-02-26T12:18:09.889Z,14.75
2019-02-26T12:20:40.000Z,14.60
2019-02-26T12:23:08.572Z,16.85
2019-02-26T12:25:37.856Z,17.33
2019-02-26T12:28:08.056Z,16.35
2019-02-26T12:30:37.662Z,17.23
2019-02-26T12:33:07.714Z,14.50
2019-02-26T12:35:38.282Z,15.83
2019-02-26T12:40:39.895Z,15.03
2019-02-26T12:43:11.061Z,13.70
2019-02-26T12:45:38.737Z,12.13
2019-02-26T12:48:10.210Z,12.45
2019-02-26T12:50:40.104Z,12.60
2019-02-26T12:53:09.525Z,13.03
2019-02-26T12:55:38.452Z,15.32
2019-02-26T12:58:07.782Z,11.22
2019-02-26T13:00:38.374Z,13.13
2019-02-26T13:03:09.389Z,10.93
2019-02-26T13:05:39.252Z,10.45
2019-02-26T13:08:10.065Z,11.00
2019-02-26T13:10:38.559Z,10.05
2019-02-26T13:13:07.955Z,8.83
2019-02-26T13:15:36.554Z,8.53
2019-02-26T13:18:04.937Z,8.88
2019-02-26T13:20:33.700Z,11.40
2019-02-26T13:23:16.210Z,7.70
2019-02-26T13:25:32.040Z,10.10
2019-02-26T13:28:00.359Z,10.60
2019-02-26T13:30:28.943Z,9.50
2019-02-26T13:33:00.860Z,11.20
2019-02-26T13:35:27.581Z,10.80
2019-02-26T13:37:57.596Z,9.18
2019-02-26T13:40:26.086Z,10.75
2019-02-26T13:45:25.807Z,11.73
2019-02-26T13:48:00.852Z,11.40
2019-02-26T13:50:26.879Z,14.23
2019-02-26T13:52:55.197Z,11.10
2019-02-26T13:55:23.508Z,13.38
2019-02-26T13:57:51.839Z,10.85
2019-02-26T14:00:26.420Z,13.78
2019-02-26T14:02:50.694Z,26.80
2019-02-26T14:05:18.997Z,13.47
2019-02-26T14:07:48.043Z,10.85
2019-02-26T14:10:18.571Z,12.95
2019-02-26T14:12:46.944Z,12.47
2019-02-26T14:15:18.172Z,13.30
2019-02-26T14:17:46.497Z,12.20
2019-02-26T14:20:14.980Z,14.70
2019-02-26T14:22:43.299Z,14.80
2019-02-26T14:25:13.052Z,12.13
2019-02-26T14:27:41.362Z,14.78
2019-02-26T14:30:12.742Z,13.13
2019-02-26T14:32:41.087Z,17.00
2019-02-26T14:35:11.719Z,16.30
2019-02-26T14:37:40.191Z,15.23
2019-02-26T14:40:11.415Z,16.85
2019-02-26T14:42:39.986Z,17.48
2019-02-26T14:45:11.224Z,14.87
2019-02-26T14:47:39.813Z,12.70
2019-02-26T14:50:13.850Z,15.60
2019-02-26T14:52:42.352Z,16.07
2019-02-26T14:55:13.556Z,15.28
2019-02-26T14:57:41.906Z,15.20
2019-02-26T15:00:18.445Z,14.43
2019-02-26T15:02:47.031Z,14.53
2019-02-26T15:05:15.693Z,15.80
2019-02-26T15:07:44.013Z,14.50
2019-02-26T15:10:12.842Z,15.95
2019-02-26T15:12:41.145Z,17.92
2019-02-26T15:15:18.989Z,16.55
2019-02-26T15:17:47.640Z,17.00
2019-02-26T15:20:17.689Z,24.30
2019-02-26T15:22:45.999Z,14.28
2019-02-26T15:25:20.408Z,15.05
2019-02-26T15:27:48.707Z,16.37
2019-02-26T15:30:19.242Z,17.50
2019-02-26T15:32:47.719Z,19.70
2019-02-26T15:35:16.109Z,17.42
2019-02-26T15:37:44.580Z,20.48
2019-02-26T15:40:17.980Z,17.20
2019-02-26T15:42:46.314Z,16.02
2019-02-26T15:45:19.909Z,16.82
2019-02-26T15:47:48.582Z,14.63
2019-02-26T15:50:18.411Z,15.43
2019-02-26T15:52:46.722Z,13.27
2019-02-26T15:55:17.047Z,13.83
2019-02-26T15:57:45.713Z,15.60
2019-02-26T16:00:19.141Z,17.60
2019-02-26T16:02:48.583Z,16.23
2019-02-26T16:05:17.025Z,15.25
2019-02-26T16:07:45.341Z,21.15
2019-02-26T16:10:13.716Z,18.55
2019-02-26T16:12:42.040Z,18.77
2019-02-26T16:15:13.175Z,20.80
2019-02-26T16:17:41.488Z,19.95
2019-02-26T16:20:17.556Z,26.75
2019-02-26T16:22:46.034Z,27.07
2019-02-26T16:25:14.424Z,24.02
2019-02-26T16:27:43.003Z,25.03
2019-02-26T16:30:17.096Z,23.40
2019-02-26T16:32:45.458Z,29.60
2019-02-26T16:35:13.839Z,27.22
2019-02-26T16:37:42.224Z,23.62
2019-02-26T16:40:12.333Z,28.25
2019-02-26T16:42:44.400Z,25.45
2019-02-26T16:45:16.617Z,21.50
2019-02-26T16:47:46.055Z,24.83
2019-02-26T16:50:24.992Z,21.27
2019-02-26T16:52:53.304Z,26.48
2019-02-26T16:55:21.617Z,33.18
2019-02-26T16:57:49.931Z,35.15
2019-02-26T17:00:26.392Z,31.42
2019-02-26T17:02:54.783Z,24.40
2019-02-26T17:05:23.114Z,24.40
2019-02-26T17:07:51.418Z,29.85
2019-02-26T17:10:29.060Z,24.55
2019-02-26T17:13:01.827Z,19.67
2019-02-26T17:15:31.180Z,24.70
2019-02-26T17:17:59.663Z,23.55
2019-02-26T17:20:27.978Z,22.65
2019-02-26T17:22:56.338Z,20.52
2019-02-26T17:25:27.309Z,21.00
2019-02-26T17:27:54.687Z,28.92
2019-02-26T17:30:23.850Z,24.32
2019-02-26T17:32:52.923Z,33.58
2019-02-26T17:35:21.271Z,32.83
2019-02-26T17:37:49.568Z,32.90
2019-02-26T17:40:19.738Z,49.18
2019-02-26T17:42:48.806Z,50.50
2019-02-26T17:45:20.613Z,51.45
2019-02-26T17:47:48.907Z,49.95
2019-02-26T17:50:26.576Z,47.48
2019-02-26T17:52:54.871Z,45.67
2019-02-26T17:55:23.446Z,46.27
2019-02-26T17:57:51.830Z,44.55
2019-02-26T18:00:23.535Z,55.60
2019-02-26T18:02:51.850Z,48.45
2019-02-26T18:05:20.474Z,49.60
2019-02-26T18:07:48.806Z,52.78
2019-02-26T18:10:19.811Z,42.45
2019-02-26T18:12:48.133Z,40.88
2019-02-26T18:15:18.463Z,42.33
2019-02-26T18:17:46.980Z,34.05
2019-02-26T18:20:17.222Z,27.67
2019-02-26T18:22:45.533Z,26.07
2019-02-26T18:25:19.181Z,34.18
2019-02-26T18:27:47.769Z,31.35
2019-02-26T18:30:23.940Z,32.07
2019-02-26T18:32:55.633Z,45.43
2019-02-26T18:35:22.297Z,52.73
2019-02-26T18:37:50.613Z,56.35
2019-02-26T18:40:19.276Z,53.70
2019-02-26T18:42:48.323Z,47.95
2019-02-26T18:45:28.822Z,42.67
2019-02-26T18:47:57.310Z,40.48
2019-02-26T18:50:28.630Z,45.63
2019-02-26T18:52:58.054Z,42.13
2019-02-26T18:55:28.793Z,43.10
2019-02-26T18:57:56.610Z,39.55
2019-02-26T19:00:27.344Z,36.00
2019-02-26T19:02:55.660Z,30.95
2019-02-26T19:05:23.972Z,36.13
2019-02-26T19:07:52.287Z,28.87
2019-02-26T19:10:21.130Z,31.15
2019-02-26T19:12:49.597Z,26.83
2019-02-26T19:15:25.711Z,30.37
2019-02-26T19:17:56.822Z,28.90
2019-02-26T19:20:29.951Z,25.23
2019-02-26T19:22:58.876Z,29.23
2019-02-26T19:25:27.818Z,27.67
2019-02-26T19:27:56.156Z,26.90
2019-02-26T19:30:24.748Z,22.45
2019-02-26T19:32:53.328Z,29.37
2019-02-26T19:35:21.916Z,25.15
2019-02-26T19:37:55.276Z,26.70
2019-02-26T19:40:26.535Z,27.95
2019-02-26T19:42:54.838Z,28.15
2019-02-26T19:45:23.536Z,27.30
2019-02-26T19:47:55.796Z,28.50
2019-02-26T19:50:22.162Z,30.70
2019-02-26T19:52:56.660Z,32.30
2019-02-26T19:55:29.360Z,32.63
2019-02-26T19:57:57.649Z,31.33
2019-02-26T20:00:26.294Z,27.45
2019-02-26T20:02:54.596Z,30.40
2019-02-26T20:05:22.923Z,29.70
2019-02-26T20:07:53.110Z,31.82
2019-02-26T20:10:21.279Z,31.07
2019-02-26T20:12:49.571Z,32.48
2019-02-26T20:15:21.697Z,31.62
2019-02-26T20:17:49.243Z,31.55
2019-02-26T20:20:19.562Z,27.07
2019-02-26T20:22:47.848Z,27.45
2019-02-26T20:25:17.881Z,29.85
2019-02-26T20:27:46.658Z,32.98
2019-02-26T20:30:20.467Z,34.38
2019-02-26T20:32:48.776Z,30.27
2019-02-26T20:35:17.087Z,27.42
2019-02-26T20:37:45.413Z,29.30
2019-02-26T20:40:24.729Z,25.90
2019-02-26T20:42:53.019Z,27.82
2019-02-26T20:45:22.771Z,28.67
2019-02-26T20:47:51.162Z,30.65
2019-02-26T20:50:21.103Z,32.55
2019-02-26T20:52:49.571Z,33.75
2019-02-26T20:55:28.630Z,34.20
2019-02-26T20:57:58.528Z,36.77
2019-02-26T21:00:26.898Z,40.30
2019-02-26T21:02:55.711Z,31.70
2019-02-26T21:05:25.045Z,38.27
2019-02-26T21:07:58.059Z,35.95
2019-02-26T21:10:23.615Z,32.20
2019-02-26T21:12:51.959Z,31.87
2019-02-26T21:15:24.271Z,36.40
2019-02-26T21:17:52.941Z,37.73
2019-02-26T21:20:21.240Z,35.03
2019-02-26T21:22:49.893Z,34.15
2019-02-26T21:25:18.196Z,34.85
2019-02-26T21:27:46.588Z,30.90
2019-02-26T21:30:18.408Z,34.43
2019-02-26T21:32:47.083Z,37.13
2019-02-26T21:35:20.033Z,33.30
2019-02-26T21:37:45.427Z,30.12
2019-02-26T21:40:16.178Z,31.52
2019-02-26T21:42:44.815Z,30.32
2019-02-26T21:45:17.291Z,29.52
2019-02-26T21:47:45.598Z,31.35
2019-02-26T21:50:14.742Z,26.70
2019-02-26T21:52:43.226Z,27.22
2019-02-26T21:55:13.820Z,29.45
2019-02-26T21:57:42.323Z,25.02
2019-02-26T22:00:20.274Z,24.67
2019-02-26T22:02:51.945Z,26.62
2019-02-26T22:05:18.772Z,25.55
2019-02-26T22:07:51.904Z,27.35
2019-02-26T22:10:18.879Z,29.48
2019-02-26T22:12:47.206Z,27.20
2019-02-26T22:15:16.610Z,25.30
2019-02-26T22:17:45.272Z,27.15
2019-02-26T22:20:23.469Z,27.77
2019-02-26T22:22:46.283Z,27.37
2019-02-26T22:25:17.144Z,27.70
2019-02-26T22:27:44.639Z,28.80
2019-02-26T22:30:16.361Z,30.70
2019-02-26T22:32:44.767Z,26.00
2019-02-26T22:35:13.509Z,26.63
2019-02-26T22:37:42.103Z,27.98
2019-02-26T22:40:12.058Z,26.95
2019-02-26T22:42:41.253Z,26.27
2019-02-26T22:45:11.967Z,25.32
2019-02-26T22:47:41.117Z,25.05
2019-02-26T22:50:17.005Z,25.03
2019-02-26T22:52:45.354Z,26.17
2019-02-26T22:55:17.708Z,28.07
2019-02-26T22:57:46.010Z,27.58
2019-02-26T23:00:22.015Z,26.90
2019-02-26T23:02:50.666Z,30.00
2019-02-26T23:05:18.988Z,27.85
2019-02-26T23:07:47.286Z,27.93
2019-02-26T23:10:16.517Z,28.90
2019-02-26T23:12:44.828Z,26.83
2019-02-26T23:15:13.217Z,30.55
2019-02-26T23:17:41.690Z,27.77
2019-02-26T23:20:11.377Z,27.32
2019-02-26T23:22:40.305Z,24.57
2019-02-26T23:25:09.495Z,26.55
2019-02-26T23:27:37.863Z,28.70
2019-02-26T23:30:11.595Z,27.50
2019-02-26T23:32:39.888Z,26.97
2019-02-26T23:35:12.744Z,28.65
2019-02-26T23:37:41.045Z,26.60
2019-02-26T23:40:13.296Z,28.52
2019-02-26T23:42:41.931Z,31.62
2019-02-26T23:45:13.843Z,27.67
2019-02-26T23:47:42.572Z,29.37
2019-02-26T23:50:11.837Z,26.48
2019-02-26T23:52:40.146Z,26.20
2019-02-26T23:55:13.140Z,30.65
2019-02-26T23:57:40.518Z,25.48
